Long Creek, SC (29658)

4:06 AM EDT on April 18, 2015 (GMT -0400)
Long Creek Woods | | Change Station
CLOSE
Current Station
Personal Weather Station
Location: Long Creek, SC
Elevation: 1674 ft
Nearby Weather Stations

Elev 1674 ft 34.75 °N, 83.28 °W | Updated 4 seconds ago

Rain
Rain
59.2 °F
Feels Like 59.2 °F
N
0.0
Wind Variable Wind from NW
Gusts 0.0 mph

Today
High -- | Low -- °F
--% Chance of Precip.
Yesterday
High -- | Low -- °F
Precip. -- in
6:57 AM 8:07 PM
Waning Crescent, 0% visible
Pressure 30.01 in
Visibility 7.0 miles
Clouds Mostly Cloudy 8000 ft
Overcast 10000 ft
Dew Point 54 °F
Humidity 83%
Rainfall 0.04 in
Snow Depth Not available.
UV 0 out of 12
Pollen 9.80 out of 12
Air Quality Not available.
Flu Activity Local Activity
METAR KTOC 180755Z AUTO 00000KT 7SM BKN080 OVC100 16/16 A3001 RMK AO2 T01630163

More Conditions Fewer Conditions

Pressure 30.01 in
Visibility 7.0 miles
Clouds Mostly Cloudy 8000 ft
Overcast 10000 ft
Dew Point 54 °F
Humidity 83%
Rainfall 0.04 in
Snow Depth Not available.
UV 0 out of 12
Pollen 9.80 out of 12
Air Quality Not available.
Flu Activity Local Activity
METAR KTOC 180755Z AUTO 00000KT 7SM BKN080 OVC100 16/16 A3001 RMK AO2 T01630163

More Conditions Fewer Conditions

10-Day Weather Forecast

Almanac

Astronomy

Apr. 18, 2015 Rise Set
Actual Time
Civil Twilight
Nautical Twilight
Astronomical Twilight
Moon
Length of Visible Light
Length of Day
Tomorrow will be .
, % of the Moon is Illuminated

Today's Extremes

State Highs State Lows

Community

WunderPhotos

Upload Photos

1,814,345 photos uploaded!

WunderBlogs® & News

Nearby

Air Quality

  Air Quality AQ Index Pollutant
Not available.

Snow Depth

Station Depth Elevation

Earthquake Activity

City Distance Mag. Time & Date
Minimum magnitude displayed is 2.5.

Coastal Water Temperatures

Place Temperature

Stations

Nearby Weather Stations

Station Location Temp. Windchill Dew Point Humidity Wind Precip. Elev Updated Type